Time;durP1;ratioP1;P1;durP2;ratioP2;P2;SDS_P1;SDS_P2;PMS_P1;PMS_P2;Temp;Humidity;BMP_temperature;BMP_pressure;BME280_temperature;BME280_humidity;BME280_pressure;Samples;Min_cycle;Max_cycle;Signal;HPM_P1;HPM_P2
2022/07/31 00:00:40;;;;;;;0.90;0.90;;;;;;;;;;5113510;28;20678;-58
2022/07/31 00:03:27;;;;;;;0.80;0.80;;;;;;;;;;5119808;27;20229;-58
2022/07/31 00:06:14;;;;;;;0.40;0.40;;;;;;;;;;5122653;27;20224;-58
2022/07/31 00:09:01;;;;;;;0.80;0.80;;;;;;;;;;5122580;27;20298;-58
2022/07/31 00:11:49;;;;;;;0.80;0.80;;;;;;;;;;5128226;27;20259;-58
2022/07/31 00:14:36;;;;;;;0.80;0.80;;;;;;;;;;5122957;27;20213;-58
2022/07/31 00:17:23;;;;;;;0.63;0.63;;;;;;;;;;5118967;27;20321;-58
2022/07/31 00:20:13;;;;;;;0.90;0.90;;;;;;;;;;5124350;27;20567;-58
2022/07/31 00:23:00;;;;;;;0.80;0.80;;;;;;;;;;5124732;27;20235;-58
2022/07/31 00:25:47;;;;;;;0.63;0.63;;;;;;;;;;5120288;27;20336;-58
2022/07/31 00:28:36;;;;;;;0.83;0.83;;;;;;;;;;5117314;27;20202;-58
2022/07/31 00:31:24;;;;;;;1.00;1.00;;;;;;;;;;5118200;27;20205;-58
2022/07/31 00:34:11;;;;;;;0.90;0.90;;;;;;;;;;5125266;27;20330;-59
2022/07/31 00:36:58;;;;;;;0.80;0.80;;;;;;;;;;5125841;27;20210;-58
2022/07/31 00:39:44;;;;;;;0.60;0.60;;;;;;;;;;5119717;27;20553;-58
2022/07/31 00:42:31;;;;;;;0.73;0.73;;;;;;;;;;5118311;27;20620;-58
2022/07/31 00:45:20;;;;;;;0.70;0.70;;;;;;;;;;5118792;27;20326;-58
2022/07/31 00:48:07;;;;;;;0.70;0.70;;;;;;;;;;5123121;27;20212;-58
2022/07/31 00:50:54;;;;;;;0.70;0.70;;;;;;;;;;5126701;27;20204;-58
2022/07/31 00:53:41;;;;;;;0.63;0.63;;;;;;;;;;5120372;27;20230;-58
2022/07/31 00:56:28;;;;;;;0.60;0.60;;;;;;;;;;5119091;27;20209;-58
2022/07/31 00:59:15;;;;;;;0.60;0.60;;;;;;;;;;5119355;27;20203;-58
2022/07/31 01:02:04;;;;;;;0.60;0.60;;;;;;;;;;5118038;27;20689;-58
2022/07/31 01:04:51;;;;;;;0.60;0.60;;;;;;;;;;5126084;27;20227;-58
2022/07/31 01:07:38;;;;;;;0.90;0.90;;;;;;;;;;5115783;27;20215;-58
2022/07/31 01:10:38;;;;;;;0.80;0.80;;;;;;;;;;5117302;27;20253;-57
2022/07/31 01:13:32;;;;;;;0.80;0.80;;;;;;;;;;5119130;27;20201;-58
2022/07/31 01:16:22;;;;;;;0.87;0.87;;;;;;;;;;5120365;27;21091;-59
2022/07/31 01:19:18;;;;;;;1.03;0.90;;;;;;;;;;5123142;27;20212;-58
2022/07/31 01:22:24;;;;;;;0.53;0.53;;;;;;;;;;5114591;27;20211;-58
2022/07/31 01:25:17;;;;;;;0.80;0.80;;;;;;;;;;5121837;27;20232;-59
2022/07/31 01:28:09;;;;;;;0.80;0.80;;;;;;;;;;5120391;27;20277;-58
2022/07/31 01:31:03;;;;;;;0.80;0.80;;;;;;;;;;5121065;27;20194;-58
2022/07/31 01:33:53;;;;;;;1.00;1.00;;;;;;;;;;5118552;27;20216;-58
2022/07/31 01:36:48;;;;;;;0.90;0.90;;;;;;;;;;5121403;27;20565;-58
2022/07/31 01:39:36;;;;;;;0.90;0.90;;;;;;;;;;5117721;27;20306;-58
2022/07/31 01:42:25;;;;;;;0.90;0.90;;;;;;;;;;5114904;27;20690;-58
2022/07/31 01:45:14;;;;;;;0.90;0.90;;;;;;;;;;5118239;27;20220;-58
2022/07/31 01:48:04;;;;;;;0.80;0.80;;;;;;;;;;5119130;27;20214;-57
2022/07/31 01:50:53;;;;;;;0.77;0.77;;;;;;;;;;5121461;27;20202;-59
2022/07/31 01:53:45;;;;;;;0.93;0.93;;;;;;;;;;5119332;27;20212;-58
2022/07/31 01:56:34;;;;;;;0.90;0.90;;;;;;;;;;5121161;27;20264;-59
2022/07/31 01:59:22;;;;;;;0.63;0.63;;;;;;;;;;5117731;27;20425;-59
2022/07/31 02:02:09;;;;;;;0.80;0.80;;;;;;;;;;5115495;27;20199;-58
2022/07/31 02:04:58;;;;;;;1.00;1.00;;;;;;;;;;5122601;27;20232;-58
2022/07/31 02:07:45;;;;;;;0.97;0.90;;;;;;;;;;5117534;27;20229;-57
2022/07/31 02:10:34;;;;;;;0.70;0.67;;;;;;;;;;5115909;27;20873;-58
2022/07/31 02:13:22;;;;;;;0.70;0.70;;;;;;;;;;5120819;27;20206;-58
2022/07/31 02:16:09;;;;;;;0.80;0.80;;;;;;;;;;5118676;27;20224;-58
2022/07/31 02:18:57;;;;;;;0.80;0.80;;;;;;;;;;5117437;27;20203;-58
2022/07/31 02:21:46;;;;;;;0.83;0.83;;;;;;;;;;5118477;27;20212;-57
2022/07/31 02:24:33;;;;;;;0.60;0.60;;;;;;;;;;5120586;27;20650;-58
2022/07/31 02:27:20;;;;;;;0.77;0.77;;;;;;;;;;5117147;27;20780;-58
2022/07/31 02:30:08;;;;;;;0.90;0.90;;;;;;;;;;5121620;27;20677;-58
2022/07/31 02:32:56;;;;;;;0.87;0.87;;;;;;;;;;5116879;27;20205;-58
2022/07/31 02:35:44;;;;;;;0.70;0.70;;;;;;;;;;5115874;27;20235;-58
2022/07/31 02:38:35;;;;;;;0.70;0.70;;;;;;;;;;5121124;27;20224;-58
2022/07/31 02:41:23;;;;;;;0.63;0.63;;;;;;;;;;5116050;27;20278;-57
2022/07/31 02:44:11;;;;;;;0.80;0.80;;;;;;;;;;5114341;27;20240;-57
2022/07/31 02:47:01;;;;;;;0.60;0.60;;;;;;;;;;5114729;28;20579;-57
2022/07/31 02:49:48;;;;;;;0.80;0.80;;;;;;;;;;5117012;27;20204;-57
2022/07/31 02:52:35;;;;;;;0.80;0.80;;;;;;;;;;5122865;28;20204;-57
2022/07/31 02:55:24;;;;;;;0.60;0.60;;;;;;;;;;5116138;28;20201;-57
2022/07/31 02:58:12;;;;;;;0.70;0.70;;;;;;;;;;5118379;27;20208;-57
2022/07/31 03:01:00;;;;;;;0.80;0.80;;;;;;;;;;5116969;28;20206;-57
2022/07/31 03:03:47;;;;;;;0.90;0.90;;;;;;;;;;5118660;28;20366;-58
2022/07/31 03:06:34;;;;;;;0.77;0.77;;;;;;;;;;5117061;28;20220;-58
2022/07/31 03:09:21;;;;;;;0.70;0.63;;;;;;;;;;5120666;28;20211;-58
2022/07/31 03:12:10;;;;;;;0.87;0.87;;;;;;;;;;5119567;27;20197;-58
2022/07/31 03:14:58;;;;;;;1.53;0.97;;;;;;;;;;5117447;28;20204;-57
2022/07/31 03:17:46;;;;;;;0.80;0.80;;;;;;;;;;5115552;28;20213;-58
2022/07/31 03:20:34;;;;;;;0.80;0.80;;;;;;;;;;5114931;28;20745;-58
2022/07/31 03:23:23;;;;;;;0.70;0.70;;;;;;;;;;5118293;28;20215;-57
2022/07/31 03:26:10;;;;;;;0.63;0.63;;;;;;;;;;5091960;28;20209;-58
2022/07/31 03:29:00;;;;;;;0.63;0.63;;;;;;;;;;5098746;28;20217;-57
2022/07/31 03:31:47;;;;;;;0.50;0.50;;;;;;;;;;5098093;28;20220;-57
2022/07/31 03:34:34;;;;;;;0.60;0.60;;;;;;;;;;5097178;28;20213;-58
2022/07/31 03:37:22;;;;;;;1.17;0.77;;;;;;;;;;5105201;28;20209;-59
2022/07/31 03:40:11;;;;;;;0.80;0.80;;;;;;;;;;5105217;28;20231;-58
2022/07/31 03:43:00;;;;;;;0.90;0.90;;;;;;;;;;5108458;28;20197;-58
2022/07/31 03:45:49;;;;;;;0.80;0.80;;;;;;;;;;5082642;28;20659;-58
2022/07/31 03:48:36;;;;;;;0.60;0.60;;;;;;;;;;5101828;28;20205;-58
2022/07/31 03:51:24;;;;;;;0.90;0.90;;;;;;;;;;5102721;28;20207;-58
2022/07/31 03:54:11;;;;;;;0.63;0.63;;;;;;;;;;5097654;28;20293;-58
2022/07/31 03:56:59;;;;;;;0.70;0.70;;;;;;;;;;5104120;27;20678;-59
2022/07/31 03:59:46;;;;;;;0.60;0.60;;;;;;;;;;5097384;28;20236;-57
2022/07/31 04:02:34;;;;;;;0.70;0.70;;;;;;;;;;5099165;28;20213;-58
2022/07/31 04:05:21;;;;;;;1.03;0.70;;;;;;;;;;5094655;28;20234;-58
2022/07/31 04:08:09;;;;;;;1.00;1.00;;;;;;;;;;5102446;28;20209;-58
2022/07/31 04:10:56;;;;;;;0.80;0.80;;;;;;;;;;5097784;28;20208;-58
2022/07/31 04:13:43;;;;;;;0.70;0.70;;;;;;;;;;5102572;28;20215;-57
2022/07/31 04:16:30;;;;;;;0.60;0.60;;;;;;;;;;5097591;28;20219;-58
2022/07/31 04:19:19;;;;;;;0.70;0.67;;;;;;;;;;5101296;28;20199;-57
2022/07/31 04:22:06;;;;;;;0.50;0.50;;;;;;;;;;5101034;27;20666;-58
2022/07/31 04:24:53;;;;;;;1.90;0.80;;;;;;;;;;5097849;28;20231;-58
2022/07/31 04:27:40;;;;;;;0.50;0.50;;;;;;;;;;5103197;28;20205;-57
2022/07/31 04:30:27;;;;;;;0.80;0.80;;;;;;;;;;5105637;28;20207;-59
2022/07/31 04:33:14;;;;;;;0.53;0.53;;;;;;;;;;5099835;28;20292;-58
2022/07/31 04:36:02;;;;;;;0.67;0.67;;;;;;;;;;5105930;28;20232;-58
2022/07/31 04:38:49;;;;;;;0.77;0.77;;;;;;;;;;5099730;28;20231;-58
2022/07/31 04:41:36;;;;;;;0.83;0.83;;;;;;;;;;5100358;28;20257;-58
2022/07/31 04:44:23;;;;;;;0.70;0.70;;;;;;;;;;5101345;27;20220;-58
2022/07/31 04:47:10;;;;;;;0.70;0.70;;;;;;;;;;5098332;28;20300;-59
2022/07/31 04:49:57;;;;;;;0.67;0.67;;;;;;;;;;5099409;28;20213;-58
2022/07/31 04:52:45;;;;;;;0.63;0.63;;;;;;;;;;5104680;28;20206;-58
2022/07/31 04:55:32;;;;;;;0.80;0.80;;;;;;;;;;5101063;28;20212;-58
2022/07/31 04:58:19;;;;;;;0.60;0.60;;;;;;;;;;5098537;28;20217;-58
2022/07/31 05:01:06;;;;;;;0.70;0.70;;;;;;;;;;5104101;27;20209;-58
2022/07/31 05:03:53;;;;;;;0.70;0.70;;;;;;;;;;5101612;28;20681;-58
2022/07/31 05:06:42;;;;;;;0.67;0.67;;;;;;;;;;5097900;28;20220;-58
2022/07/31 05:09:32;;;;;;;0.53;0.53;;;;;;;;;;5100911;28;20205;-58
2022/07/31 05:12:19;;;;;;;1.20;0.80;;;;;;;;;;5102609;28;20658;-59
2022/07/31 05:15:07;;;;;;;0.60;0.60;;;;;;;;;;5101378;28;20660;-58
2022/07/31 05:17:54;;;;;;;0.67;0.50;;;;;;;;;;5097803;28;20681;-58
2022/07/31 05:20:41;;;;;;;0.60;0.60;;;;;;;;;;5094576;28;20743;-58
2022/07/31 05:23:28;;;;;;;1.03;0.70;;;;;;;;;;5097982;28;20292;-58
2022/07/31 05:26:17;;;;;;;0.80;0.80;;;;;;;;;;5097543;28;20228;-58
2022/07/31 05:29:04;;;;;;;0.60;0.60;;;;;;;;;;5100341;28;20202;-58
2022/07/31 05:31:51;;;;;;;0.80;0.80;;;;;;;;;;5101178;28;20223;-58
2022/07/31 05:34:38;;;;;;;0.60;0.60;;;;;;;;;;5101405;28;20260;-58
2022/07/31 05:37:25;;;;;;;0.60;0.60;;;;;;;;;;5100765;28;20635;-58
2022/07/31 05:40:12;;;;;;;0.80;0.73;;;;;;;;;;5103841;28;20206;-58
2022/07/31 05:43:01;;;;;;;0.73;0.73;;;;;;;;;;5102981;28;20207;-58
2022/07/31 05:45:48;;;;;;;0.70;0.70;;;;;;;;;;5096844;28;20230;-58
2022/07/31 05:48:35;;;;;;;0.60;0.60;;;;;;;;;;5101309;28;20555;-58
2022/07/31 05:51:22;;;;;;;0.67;0.67;;;;;;;;;;5099070;28;20207;-58
2022/07/31 05:54:09;;;;;;;0.60;0.60;;;;;;;;;;5096841;28;20233;-58
2022/07/31 05:56:56;;;;;;;0.80;0.80;;;;;;;;;;5099757;28;20288;-58
2022/07/31 05:59:45;;;;;;;0.57;0.57;;;;;;;;;;5098178;28;20292;-58
2022/07/31 06:02:32;;;;;;;0.80;0.80;;;;;;;;;;5098700;28;20715;-58
2022/07/31 06:05:19;;;;;;;0.50;0.50;;;;;;;;;;5096739;28;20505;-58
2022/07/31 06:08:08;;;;;;;0.68;0.68;;;;;;;;;;5097068;28;20209;-58
2022/07/31 06:10:55;;;;;;;0.63;0.63;;;;;;;;;;5102661;28;20255;-58
2022/07/31 06:13:42;;;;;;;0.60;0.60;;;;;;;;;;5097508;28;20209;-58
2022/07/31 06:16:30;;;;;;;0.55;0.55;;;;;;;;;;5101563;28;20224;-57
2022/07/31 06:19:19;;;;;;;0.60;0.60;;;;;;;;;;5102830;28;20286;-58
2022/07/31 06:22:06;;;;;;;0.70;0.70;;;;;;;;;;5097181;28;20575;-58
2022/07/31 06:24:52;;;;;;;0.75;0.75;;;;;;;;;;5097464;28;20322;-58
2022/07/31 06:27:40;;;;;;;0.60;0.60;;;;;;;;;;5097252;28;20205;-58
2022/07/31 06:30:29;;;;;;;0.68;0.68;;;;;;;;;;5097452;28;20284;-59
2022/07/31 06:33:17;;;;;;;0.60;0.60;;;;;;;;;;5094993;28;20277;-58
2022/07/31 06:36:04;;;;;;;0.70;0.70;;;;;;;;;;5098273;28;20211;-58
2022/07/31 06:38:51;;;;;;;1.00;0.68;;;;;;;;;;5098545;28;20202;-58
2022/07/31 06:41:45;;;;;;;0.70;0.63;;;;;;;;;;5092708;28;20209;-59
2022/07/31 06:44:34;;;;;;;0.50;0.50;;;;;;;;;;5099667;28;20281;-58
2022/07/31 06:47:22;;;;;;;0.68;0.68;;;;;;;;;;5095408;28;20285;-58
2022/07/31 06:50:11;;;;;;;0.70;0.70;;;;;;;;;;5098483;28;20213;-58
2022/07/31 06:52:57;;;;;;;0.57;0.57;;;;;;;;;;5096672;28;20205;-58
2022/07/31 06:55:44;;;;;;;0.70;0.70;;;;;;;;;;5096299;28;20209;-59
2022/07/31 06:58:32;;;;;;;0.55;0.55;;;;;;;;;;5096639;28;20210;-58
2022/07/31 07:01:18;;;;;;;0.77;0.77;;;;;;;;;;5100326;28;20792;-58
2022/07/31 07:04:05;;;;;;;0.60;0.60;;;;;;;;;;5096324;28;20244;-58
2022/07/31 07:06:54;;;;;;;0.60;0.60;;;;;;;;;;5102548;28;20231;-58
2022/07/31 07:09:41;;;;;;;0.70;0.70;;;;;;;;;;5099800;28;20620;-58
2022/07/31 07:12:28;;;;;;;0.80;0.57;;;;;;;;;;5101522;28;20213;-58
2022/07/31 07:15:15;;;;;;;0.50;0.50;;;;;;;;;;5103377;28;20202;-59
2022/07/31 07:18:02;;;;;;;0.57;0.57;;;;;;;;;;5099412;28;20210;-59
2022/07/31 07:20:49;;;;;;;0.60;0.60;;;;;;;;;;5098819;28;20214;-58
2022/07/31 07:23:37;;;;;;;1.38;0.40;;;;;;;;;;5105011;28;20683;-59
2022/07/31 07:26:24;;;;;;;0.63;0.40;;;;;;;;;;5105636;28;20225;-58
2022/07/31 07:29:11;;;;;;;0.60;0.60;;;;;;;;;;5098452;28;20256;-55
2022/07/31 07:31:58;;;;;;;0.50;0.50;;;;;;;;;;5103847;28;20276;-57
2022/07/31 07:34:45;;;;;;;0.40;0.40;;;;;;;;;;5098627;28;20653;-58
2022/07/31 07:37:32;;;;;;;0.43;0.43;;;;;;;;;;5099568;28;20288;-57
2022/07/31 07:40:21;;;;;;;0.40;0.38;;;;;;;;;;5098654;28;20276;-57
2022/07/31 07:43:08;;;;;;;0.50;0.50;;;;;;;;;;5106027;28;20202;-57
2022/07/31 07:45:55;;;;;;;0.60;0.60;;;;;;;;;;5101059;28;20229;-58
2022/07/31 07:48:42;;;;;;;0.38;0.38;;;;;;;;;;5106060;28;20206;-56
2022/07/31 07:51:29;;;;;;;0.60;0.60;;;;;;;;;;5096913;28;20655;-56
2022/07/31 07:54:16;;;;;;;0.60;0.60;;;;;;;;;;5097738;28;20202;-58
2022/07/31 07:57:05;;;;;;;0.70;0.70;;;;;;;;;;5096074;28;20579;-56
2022/07/31 07:59:52;;;;;;;0.65;0.40;;;;;;;;;;5102659;28;20216;-57
2022/07/31 08:02:40;;;;;;;0.70;0.70;;;;;;;;;;5102406;28;20206;-59
2022/07/31 08:05:27;;;;;;;0.50;0.50;;;;;;;;;;5100941;28;20238;-59
2022/07/31 08:08:13;;;;;;;0.55;0.55;;;;;;;;;;5095874;28;20221;-59
2022/07/31 08:11:02;;;;;;;0.60;0.60;;;;;;;;;;5105018;28;20270;-59
2022/07/31 08:13:51;;;;;;;0.43;0.43;;;;;;;;;;5100599;28;20255;-57
2022/07/31 08:16:38;;;;;;;0.45;0.45;;;;;;;;;;5101786;28;20276;-56
2022/07/31 08:19:24;;;;;;;0.40;0.40;;;;;;;;;;5105559;28;20328;-57
2022/07/31 08:22:11;;;;;;;0.40;0.40;;;;;;;;;;5098179;28;20203;-57
2022/07/31 08:24:58;;;;;;;0.40;0.40;;;;;;;;;;5102628;28;20254;-57
2022/07/31 08:27:45;;;;;;;0.40;0.40;;;;;;;;;;5098828;28;20222;-57
2022/07/31 08:30:34;;;;;;;0.40;0.40;;;;;;;;;;5102430;27;20206;-58
2022/07/31 08:33:22;;;;;;;0.45;0.45;;;;;;;;;;5098221;28;20289;-55
2022/07/31 08:36:08;;;;;;;0.50;0.50;;;;;;;;;;5099712;28;20556;-57
2022/07/31 08:38:55;;;;;;;0.38;0.38;;;;;;;;;;5103551;28;20220;-57
2022/07/31 08:41:42;;;;;;;0.40;0.40;;;;;;;;;;5101537;28;20444;-57
2022/07/31 08:44:29;;;;;;;0.45;0.43;;;;;;;;;;5099316;28;20218;-57
2022/07/31 08:47:18;;;;;;;0.52;0.52;;;;;;;;;;5102514;28;20225;-57
2022/07/31 08:50:07;;;;;;;0.30;0.30;;;;;;;;;;5100663;28;20214;-58
2022/07/31 08:52:56;;;;;;;0.40;0.40;;;;;;;;;;5095332;28;20216;-58
2022/07/31 08:55:44;;;;;;;0.30;0.30;;;;;;;;;;5102473;28;20677;-58
2022/07/31 08:58:30;;;;;;;0.40;0.40;;;;;;;;;;5099085;28;20272;-57
2022/07/31 09:01:18;;;;;;;0.40;0.40;;;;;;;;;;5102762;28;20202;-57
2022/07/31 09:04:06;;;;;;;0.50;0.50;;;;;;;;;;5100597;28;20333;-57
2022/07/31 09:06:55;;;;;;;0.20;0.20;;;;;;;;;;5096700;28;20894;-57
2022/07/31 09:09:43;;;;;;;0.95;0.63;;;;;;;;;;5100851;28;20210;-60
2022/07/31 09:12:32;;;;;;;1.27;0.68;;;;;;;;;;5107610;28;20904;-58
2022/07/31 09:15:20;;;;;;;0.57;0.57;;;;;;;;;;5093128;28;20207;-58
2022/07/31 09:18:16;;;;;;;1.02;0.57;;;;;;;;;;5107045;28;20205;-57
2022/07/31 09:21:07;;;;;;;0.40;0.40;;;;;;;;;;5100073;28;20206;-57
2022/07/31 09:23:54;;;;;;;0.68;0.68;;;;;;;;;;5096630;28;20207;-58
2022/07/31 09:26:41;;;;;;;0.50;0.50;;;;;;;;;;5096661;28;20371;-58
2022/07/31 09:29:34;;;;;;;1.77;0.30;;;;;;;;;;5100409;28;20206;-57
2022/07/31 09:32:21;;;;;;;0.50;0.50;;;;;;;;;;5100294;28;20702;-58
2022/07/31 09:35:10;;;;;;;0.50;0.50;;;;;;;;;;5103455;28;20882;-62
2022/07/31 09:37:58;;;;;;;0.52;0.52;;;;;;;;;;5099899;28;20213;-58
2022/07/31 09:40:46;;;;;;;0.40;0.40;;;;;;;;;;5092370;28;20207;-57
2022/07/31 09:43:33;;;;;;;0.40;0.40;;;;;;;;;;5098079;28;20258;-57
2022/07/31 09:46:20;;;;;;;0.65;0.65;;;;;;;;;;5094053;28;20233;-57
2022/07/31 09:49:07;;;;;;;0.40;0.40;;;;;;;;;;5097782;28;20203;-58
2022/07/31 09:51:54;;;;;;;0.80;0.38;;;;;;;;;;5098239;28;20666;-57
2022/07/31 09:54:42;;;;;;;0.50;0.50;;;;;;;;;;5100027;28;20205;-57
2022/07/31 09:57:29;;;;;;;0.40;0.40;;;;;;;;;;5101266;28;20198;-58
2022/07/31 10:00:16;;;;;;;0.60;0.60;;;;;;;;;;5097643;28;20248;-58
2022/07/31 10:03:03;;;;;;;0.47;0.40;;;;;;;;;;5096794;28;20205;-57
2022/07/31 10:05:51;;;;;;;0.30;0.30;;;;;;;;;;5100555;28;20263;-58
2022/07/31 10:08:39;;;;;;;0.38;0.38;;;;;;;;;;5094347;28;20298;-57
2022/07/31 10:11:31;;;;;;;0.40;0.40;;;;;;;;;;5098408;28;20203;-57
2022/07/31 10:14:22;;;;;;;0.55;0.50;;;;;;;;;;5095571;28;20213;-58
2022/07/31 10:17:10;;;;;;;0.47;0.47;;;;;;;;;;5095739;28;20202;-57
2022/07/31 10:20:00;;;;;;;0.50;0.50;;;;;;;;;;5098486;28;20580;-57
2022/07/31 10:22:49;;;;;;;0.55;0.55;;;;;;;;;;5092563;28;20199;-57
2022/07/31 10:25:42;;;;;;;0.40;0.40;;;;;;;;;;5098905;28;20244;-59
2022/07/31 10:28:32;;;;;;;0.52;0.52;;;;;;;;;;5098058;28;20301;-58
2022/07/31 10:31:19;;;;;;;0.30;0.30;;;;;;;;;;5095928;28;20195;-58
2022/07/31 10:34:06;;;;;;;0.52;0.52;;;;;;;;;;5095967;28;20336;-58
2022/07/31 10:36:57;;;;;;;1.95;0.30;;;;;;;;;;5095780;28;20197;-58
2022/07/31 10:39:55;;;;;;;0.77;0.60;;;;;;;;;;5105635;28;20803;-59
2022/07/31 10:42:46;;;;;;;0.30;0.30;;;;;;;;;;5097826;28;20205;-58
2022/07/31 10:45:45;;;;;;;0.40;0.40;;;;;;;;;;5094497;28;20246;-58
2022/07/31 10:48:32;;;;;;;1.27;0.50;;;;;;;;;;5096686;28;20201;-58
2022/07/31 10:51:21;;;;;;;0.47;0.47;;;;;;;;;;5100052;28;20209;-58
2022/07/31 10:54:10;;;;;;;0.38;0.38;;;;;;;;;;5097017;28;20198;-59
2022/07/31 10:56:57;;;;;;;0.40;0.40;;;;;;;;;;5096226;28;20563;-58
2022/07/31 10:59:44;;;;;;;0.40;0.40;;;;;;;;;;5096815;28;20284;-58
2022/07/31 11:02:36;;;;;;;0.35;0.35;;;;;;;;;;5093754;28;20202;-58
2022/07/31 11:05:24;;;;;;;0.50;0.50;;;;;;;;;;5093976;28;20233;-58
2022/07/31 11:08:11;;;;;;;0.65;0.52;;;;;;;;;;5097731;28;20294;-59
2022/07/31 11:11:00;;;;;;;0.30;0.30;;;;;;;;;;5100150;28;20209;-58
2022/07/31 11:13:50;;;;;;;0.30;0.30;;;;;;;;;;5100538;28;20280;-58
2022/07/31 11:16:37;;;;;;;0.43;0.43;;;;;;;;;;5100203;27;20662;-58
2022/07/31 11:19:36;;;;;;;0.40;0.40;;;;;;;;;;5098550;28;20203;-59
2022/07/31 11:22:23;;;;;;;0.40;0.40;;;;;;;;;;5092287;28;20685;-58
2022/07/31 11:25:12;;;;;;;0.47;0.47;;;;;;;;;;5098008;28;20327;-58
2022/07/31 11:28:10;;;;;;;0.47;0.47;;;;;;;;;;5099972;28;20233;-59
2022/07/31 11:30:59;;;;;;;0.50;0.50;;;;;;;;;;5099253;28;20206;-59
2022/07/31 11:33:48;;;;;;;0.50;0.50;;;;;;;;;;5092078;28;20219;-58
2022/07/31 11:36:36;;;;;;;0.43;0.40;;;;;;;;;;5101948;28;20643;-58
2022/07/31 11:39:26;;;;;;;0.40;0.40;;;;;;;;;;5104458;28;20565;-58
2022/07/31 11:42:13;;;;;;;0.30;0.30;;;;;;;;;;5095518;28;20221;-57
2022/07/31 11:45:03;;;;;;;0.50;0.50;;;;;;;;;;5097072;28;20213;-58
2022/07/31 11:47:51;;;;;;;0.45;0.45;;;;;;;;;;5101901;28;20685;-57
2022/07/31 11:50:41;;;;;;;0.52;0.52;;;;;;;;;;5104956;28;20208;-57
2022/07/31 11:53:30;;;;;;;0.40;0.40;;;;;;;;;;5097092;28;20452;-57
2022/07/31 11:56:18;;;;;;;0.52;0.52;;;;;;;;;;5099440;28;20214;-57
2022/07/31 11:59:06;;;;;;;0.45;0.45;;;;;;;;;;5100941;28;20203;-57
2022/07/31 12:01:52;;;;;;;0.40;0.40;;;;;;;;;;5104388;28;20279;-57
2022/07/31 12:04:40;;;;;;;0.50;0.50;;;;;;;;;;5099844;28;20290;-58
2022/07/31 12:07:28;;;;;;;0.40;0.40;;;;;;;;;;5096701;28;20233;-58
2022/07/31 12:10:16;;;;;;;0.40;0.40;;;;;;;;;;5102078;28;20206;-57
2022/07/31 12:13:03;;;;;;;1.10;0.50;;;;;;;;;;5095927;28;20202;-58
2022/07/31 12:15:55;;;;;;;0.40;0.40;;;;;;;;;;5101466;28;20619;-57
2022/07/31 12:18:47;;;;;;;0.60;0.57;;;;;;;;;;5101720;28;20215;-58
2022/07/31 12:21:36;;;;;;;0.50;0.50;;;;;;;;;;5101715;28;20297;-58
2022/07/31 12:24:23;;;;;;;0.40;0.40;;;;;;;;;;5102056;27;20232;-58
2022/07/31 12:27:16;;;;;;;0.40;0.40;;;;;;;;;;5115077;27;20251;-58
2022/07/31 12:30:13;;;;;;;0.50;0.50;;;;;;;;;;5116697;27;20197;-58
2022/07/31 12:33:05;;;;;;;0.28;0.28;;;;;;;;;;5123001;27;20201;-57
2022/07/31 12:35:51;;;;;;;0.38;0.38;;;;;;;;;;5118452;27;20263;-57
2022/07/31 12:38:38;;;;;;;0.57;0.57;;;;;;;;;;5120674;27;20205;-58
2022/07/31 12:41:25;;;;;;;0.40;0.40;;;;;;;;;;5115349;27;20209;-57
2022/07/31 12:44:14;;;;;;;0.50;0.50;;;;;;;;;;5128042;27;20693;-58
2022/07/31 12:47:01;;;;;;;0.35;0.35;;;;;;;;;;5120187;27;20225;-58
2022/07/31 12:49:48;;;;;;;0.38;0.38;;;;;;;;;;5122197;27;20429;-58
2022/07/31 12:52:36;;;;;;;0.45;0.40;;;;;;;;;;5116266;27;20198;-58
2022/07/31 12:55:23;;;;;;;0.30;0.30;;;;;;;;;;5115029;27;20205;-57
2022/07/31 12:58:10;;;;;;;0.30;0.30;;;;;;;;;;5123517;27;20200;-58
2022/07/31 13:00:58;;;;;;;0.30;0.30;;;;;;;;;;5122111;27;20224;-57
2022/07/31 13:03:47;;;;;;;0.43;0.43;;;;;;;;;;5118229;27;20198;-57
2022/07/31 13:06:34;;;;;;;0.50;0.50;;;;;;;;;;5114241;27;20218;-58
2022/07/31 13:09:21;;;;;;;0.50;0.50;;;;;;;;;;5117512;27;20689;-59
2022/07/31 13:12:09;;;;;;;0.70;0.70;;;;;;;;;;5115917;27;20194;-59
2022/07/31 13:14:56;;;;;;;0.40;0.40;;;;;;;;;;5114581;27;20647;-59
2022/07/31 13:17:45;;;;;;;0.45;0.45;;;;;;;;;;5115271;27;20241;-59
2022/07/31 13:20:31;;;;;;;0.52;0.40;;;;;;;;;;5116080;27;20210;-59
2022/07/31 13:23:20;;;;;;;0.60;0.60;;;;;;;;;;5113989;27;20225;-59
2022/07/31 13:26:07;;;;;;;0.73;0.60;;;;;;;;;;5121493;27;20209;-59
2022/07/31 13:28:54;;;;;;;0.40;0.40;;;;;;;;;;5114559;27;20209;-59
2022/07/31 13:31:41;;;;;;;0.40;0.40;;;;;;;;;;5116185;27;20730;-59
2022/07/31 13:34:29;;;;;;;0.40;0.40;;;;;;;;;;5120659;27;20218;-59
2022/07/31 13:37:16;;;;;;;0.50;0.40;;;;;;;;;;5119261;27;20198;-59
2022/07/31 13:40:03;;;;;;;0.70;0.52;;;;;;;;;;5119415;27;20284;-59
2022/07/31 13:42:50;;;;;;;1.50;0.43;;;;;;;;;;5117228;27;20198;-59
2022/07/31 13:45:38;;;;;;;0.60;0.60;;;;;;;;;;5119322;27;20265;-59
2022/07/31 13:48:25;;;;;;;0.35;0.35;;;;;;;;;;5123603;27;20224;-58
2022/07/31 13:51:13;;;;;;;0.45;0.45;;;;;;;;;;5117984;27;20285;-59
2022/07/31 13:54:01;;;;;;;0.47;0.45;;;;;;;;;;5114743;27;20290;-58
2022/07/31 13:56:47;;;;;;;0.50;0.50;;;;;;;;;;5117733;27;20205;-58
2022/07/31 13:59:34;;;;;;;0.60;0.60;;;;;;;;;;5121707;27;20692;-58
2022/07/31 14:02:21;;;;;;;0.60;0.60;;;;;;;;;;5118387;27;20279;-59
2022/07/31 14:05:09;;;;;;;0.50;0.50;;;;;;;;;;5120190;27;20229;-59
2022/07/31 14:07:58;;;;;;;0.63;0.57;;;;;;;;;;5118012;27;20230;-58
2022/07/31 14:10:46;;;;;;;0.60;0.60;;;;;;;;;;5124360;27;20213;-58
2022/07/31 14:13:33;;;;;;;0.55;0.55;;;;;;;;;;5117020;27;20772;-58
2022/07/31 14:16:20;;;;;;;1.52;0.70;;;;;;;;;;5110878;27;20587;-59
2022/07/31 14:19:07;;;;;;;2.65;0.77;;;;;;;;;;5120881;27;20209;-58
2022/07/31 14:21:54;;;;;;;0.60;0.60;;;;;;;;;;5111240;28;20279;-58
2022/07/31 14:24:43;;;;;;;0.80;0.80;;;;;;;;;;5111019;27;20727;-59
2022/07/31 14:27:30;;;;;;;0.65;0.65;;;;;;;;;;5117399;27;20245;-58
2022/07/31 14:30:17;;;;;;;0.60;0.60;;;;;;;;;;5121348;27;20610;-58
2022/07/31 14:33:04;;;;;;;0.57;0.55;;;;;;;;;;5122408;27;20591;-58
2022/07/31 14:35:51;;;;;;;0.63;0.63;;;;;;;;;;5116909;27;20612;-58
2022/07/31 14:38:38;;;;;;;0.70;0.70;;;;;;;;;;5117357;27;20193;-58
2022/07/31 14:41:27;;;;;;;0.70;0.70;;;;;;;;;;5123166;27;20587;-58
2022/07/31 14:44:14;;;;;;;0.75;0.75;;;;;;;;;;5125712;27;20217;-58
2022/07/31 14:47:01;;;;;;;0.73;0.73;;;;;;;;;;5119087;27;20221;-59
2022/07/31 14:49:48;;;;;;;0.68;0.68;;;;;;;;;;5120724;27;20294;-58
2022/07/31 14:52:35;;;;;;;0.90;0.90;;;;;;;;;;5119600;27;20204;-58
2022/07/31 14:55:23;;;;;;;0.55;0.55;;;;;;;;;;5119768;27;20340;-59
2022/07/31 14:58:12;;;;;;;0.82;0.50;;;;;;;;;;5121041;27;20220;-58
2022/07/31 15:00:59;;;;;;;0.47;0.47;;;;;;;;;;5116672;28;20210;-58
2022/07/31 15:03:45;;;;;;;0.40;0.40;;;;;;;;;;5114160;28;20201;-58
2022/07/31 15:06:33;;;;;;;0.65;0.65;;;;;;;;;;5116685;28;20229;-59
2022/07/31 15:09:20;;;;;;;0.57;0.57;;;;;;;;;;5113177;28;20653;-58
2022/07/31 15:12:07;;;;;;;0.50;0.50;;;;;;;;;;5113480;28;20567;-58
2022/07/31 15:14:56;;;;;;;0.50;0.50;;;;;;;;;;5116234;28;20202;-58
2022/07/31 15:17:43;;;;;;;0.50;0.50;;;;;;;;;;5114530;28;20201;-58
2022/07/31 15:20:30;;;;;;;0.60;0.60;;;;;;;;;;5112089;28;20201;-58
2022/07/31 15:23:17;;;;;;;0.80;0.80;;;;;;;;;;5112709;28;20201;-58
2022/07/31 15:26:04;;;;;;;1.42;0.70;;;;;;;;;;5111824;28;20216;-58
2022/07/31 15:28:51;;;;;;;0.65;0.65;;;;;;;;;;5110311;28;20299;-58
2022/07/31 15:31:39;;;;;;;1.38;1.00;;;;;;;;;;5114876;27;20228;-59
2022/07/31 15:34:26;;;;;;;0.52;0.52;;;;;;;;;;5118655;27;20209;-58
2022/07/31 15:37:13;;;;;;;0.68;0.68;;;;;;;;;;5124320;27;20231;-58
2022/07/31 15:40:00;;;;;;;0.80;0.80;;;;;;;;;;5120421;27;20214;-58
2022/07/31 15:42:47;;;;;;;0.57;0.57;;;;;;;;;;5118663;27;20197;-58
2022/07/31 15:45:34;;;;;;;0.90;0.90;;;;;;;;;;5117825;27;20306;-59
2022/07/31 15:48:23;;;;;;;0.88;0.88;;;;;;;;;;5115551;27;20225;-58
2022/07/31 15:51:10;;;;;;;0.73;0.73;;;;;;;;;;5119616;27;20208;-58
2022/07/31 15:53:57;;;;;;;0.68;0.68;;;;;;;;;;5122829;27;20223;-58
2022/07/31 15:56:45;;;;;;;0.60;0.60;;;;;;;;;;5123636;27;20197;-58
2022/07/31 15:59:32;;;;;;;0.75;0.75;;;;;;;;;;5117724;27;20281;-58
2022/07/31 16:02:19;;;;;;;0.90;0.90;;;;;;;;;;5118140;27;20832;-58
2022/07/31 16:05:09;;;;;;;0.75;0.75;;;;;;;;;;5115491;27;20244;-58
2022/07/31 16:07:56;;;;;;;0.63;0.63;;;;;;;;;;5116307;27;20225;-58
2022/07/31 16:10:43;;;;;;;0.57;0.57;;;;;;;;;;5122629;27;20303;-58
2022/07/31 16:13:35;;;;;;;1.25;0.70;;;;;;;;;;5119358;27;20213;-58
2022/07/31 16:16:21;;;;;;;1.08;0.80;;;;;;;;;;5114445;27;20209;-59
2022/07/31 16:19:08;;;;;;;0.75;0.75;;;;;;;;;;5118840;27;20234;-58
2022/07/31 16:21:57;;;;;;;1.77;0.70;;;;;;;;;;5121239;27;20202;-58
2022/07/31 16:24:44;;;;;;;0.75;0.75;;;;;;;;;;5121536;27;20256;-58
2022/07/31 16:27:31;;;;;;;1.02;0.80;;;;;;;;;;5118317;27;20354;-58
2022/07/31 16:30:18;;;;;;;0.70;0.70;;;;;;;;;;5120000;27;20543;-58
2022/07/31 16:33:05;;;;;;;0.85;0.85;;;;;;;;;;5122660;27;20215;-58
2022/07/31 16:35:52;;;;;;;0.65;0.65;;;;;;;;;;5120376;27;20220;-58
2022/07/31 16:38:40;;;;;;;0.70;0.70;;;;;;;;;;5121541;27;20200;-59
2022/07/31 16:41:27;;;;;;;0.80;0.80;;;;;;;;;;5119685;27;20208;-58
2022/07/31 16:44:14;;;;;;;0.70;0.70;;;;;;;;;;5120673;27;20210;-58
2022/07/31 16:47:01;;;;;;;0.77;0.75;;;;;;;;;;5123557;27;20210;-57